Time;durP1;ratioP1;P1;durP2;ratioP2;P2;SDS_P1;SDS_P2;PMS_P1;PMS_P2;Temp;Humidity;BMP_temperature;BMP_pressure;BME280_temperature;BME280_humidity;BME280_pressure;Samples;Min_cycle;Max_cycle;Signal;HPM_P1;HPM_P2
2022/11/12 00:00:33;;;;;;;10.40;9.30;;;;;;;6.32;nan;99683.81;5035699;28;20222;-71
2022/11/12 00:02:59;;;;;;;12.50;9.00;;;;;;;6.31;nan;99681.31;5036039;28;20246;-71
2022/11/12 00:05:26;;;;;;;12.10;9.10;;;;;;;6.27;nan;99686.09;5036064;28;20268;-71
2022/11/12 00:07:52;;;;;;;10.60;9.00;;;;;;;6.29;nan;99685.94;5035982;28;20220;-71
2022/11/12 00:10:18;;;;;;;11.20;8.87;;;;;;;6.23;nan;99683.88;5035941;28;20225;-71
2022/11/12 00:12:45;;;;;;;10.33;9.17;;;;;;;6.24;nan;99681.09;5035956;28;20229;-71
2022/11/12 00:15:12;;;;;;;10.83;9.03;;;;;;;6.24;nan;99680.28;5035897;28;20201;-71
2022/11/12 00:17:39;;;;;;;11.77;8.57;;;;;;;6.15;nan;99679.34;5035809;28;20202;-71
2022/11/12 00:20:06;;;;;;;10.13;9.00;;;;;;;6.11;nan;99682.47;5035386;28;20210;-71
2022/11/12 00:22:34;;;;;;;9.60;8.70;;;;;;;6.08;nan;99686.25;5035500;28;20214;-71
2022/11/12 00:25:01;;;;;;;10.43;9.33;;;;;;;6.04;nan;99686.69;5035756;28;20217;-71
2022/11/12 00:27:28;;;;;;;12.20;10.47;;;;;;;6.00;nan;99688.81;5036212;28;20292;-71
2022/11/12 00:29:55;;;;;;;13.07;10.33;;;;;;;6.04;nan;99682.25;5035554;28;20217;-71
2022/11/12 00:32:21;;;;;;;12.57;10.87;;;;;;;6.06;nan;99680.25;5035567;28;20276;-71
2022/11/12 00:34:47;;;;;;;12.50;10.07;;;;;;;6.06;nan;99676.81;5035094;28;20206;-71
2022/11/12 00:37:15;;;;;;;14.50;10.73;;;;;;;6.07;nan;99678.47;5035520;28;20202;-71
2022/11/12 00:39:42;;;;;;;12.13;10.90;;;;;;;6.00;nan;99683.53;5035454;28;20213;-71
2022/11/12 00:42:08;;;;;;;11.27;10.13;;;;;;;5.90;nan;99684.56;5035071;28;20232;-71
2022/11/12 00:44:35;;;;;;;12.00;10.30;;;;;;;5.93;nan;99690.38;5035388;28;20232;-71
2022/11/12 00:47:01;;;;;;;13.10;10.93;;;;;;;5.97;nan;99683.81;5035268;28;20289;-71
2022/11/12 00:49:27;;;;;;;11.97;10.23;;;;;;;5.95;nan;99682.31;5035329;28;20202;-71
2022/11/12 00:51:54;;;;;;;11.00;9.90;;;;;;;5.93;nan;99674.53;5035147;28;20228;-71
2022/11/12 00:54:20;;;;;;;11.33;10.13;;;;;;;5.89;nan;99680.28;5035217;28;20206;-71
2022/11/12 00:56:47;;;;;;;11.40;9.93;;;;;;;5.86;nan;99670.84;5035579;28;20212;-71
2022/11/12 00:59:14;;;;;;;12.77;10.10;;;;;;;5.80;nan;99679.38;5034891;28;20740;-71
2022/11/12 01:01:41;;;;;;;11.43;10.07;;;;;;;5.77;nan;99676.16;5035092;28;20232;-71
2022/11/12 01:04:07;;;;;;;11.67;9.87;;;;;;;5.75;nan;99676.28;5035197;28;20245;-71
2022/11/12 01:06:34;;;;;;;12.37;9.93;;;;;;;5.70;nan;99673.28;5034662;28;20701;-71
2022/11/12 01:09:01;;;;;;;10.70;9.67;;;;;;;5.66;nan;99671.91;5034597;28;20577;-71
2022/11/12 01:11:29;;;;;;;10.07;8.93;;;;;;;5.67;nan;99662.19;5034823;28;20230;-71
2022/11/12 01:13:59;;;;;;;12.23;9.73;;;;;;;5.61;nan;99676.81;5034437;28;20320;-71
2022/11/12 01:16:29;;;;;;;11.23;9.37;;;;;;;5.58;nan;99669.19;5034799;28;20264;-71
2022/11/12 01:18:57;;;;;;;11.23;9.93;;;;;;;5.60;nan;99676.94;5034783;28;20201;-70
2022/11/12 01:21:26;;;;;;;10.97;9.70;;;;;;;5.54;nan;99681.03;5034208;28;20240;-71
2022/11/12 01:23:53;;;;;;;14.23;10.77;;;;;;;5.60;nan;99680.44;5034652;28;20197;-71
2022/11/12 01:26:22;;;;;;;11.70;10.50;;;;;;;5.66;nan;99679.81;5034296;28;20219;-71
2022/11/12 01:28:49;;;;;;;11.50;10.07;;;;;;;5.65;nan;99680.81;5034469;28;20557;-71
2022/11/12 01:31:15;;;;;;;10.97;9.87;;;;;;;5.70;nan;99670.63;5034126;28;20705;-71
2022/11/12 01:33:43;;;;;;;12.43;10.07;;;;;;;5.67;nan;99665.69;5034621;28;20222;-71
2022/11/12 01:36:10;;;;;;;10.90;9.37;;;;;;;5.58;nan;99673.63;5034424;28;20206;-71
2022/11/12 01:38:38;;;;;;;10.30;9.23;;;;;;;5.50;nan;99661.19;5034395;28;20210;-71
2022/11/12 01:41:07;;;;;;;10.73;8.53;;;;;;;5.44;nan;99660.94;5034191;28;20226;-71
2022/11/12 01:43:34;;;;;;;10.30;9.03;;;;;;;5.43;nan;99659.31;5033948;28;20559;-71
2022/11/12 01:46:05;;;;;;;11.60;9.53;;;;;;;5.43;nan;99661.94;5034230;28;20212;-71
2022/11/12 01:48:36;;;;;;;10.40;9.37;;;;;;;5.43;nan;99652.19;5033531;28;20194;-71
2022/11/12 01:51:04;;;;;;;10.13;9.03;;;;;;;5.42;nan;99649.75;5034326;28;20232;-71
2022/11/12 01:53:36;;;;;;;9.73;8.73;;;;;;;5.40;nan;99647.25;5033887;28;20230;-71
2022/11/12 01:56:04;;;;;;;9.77;8.77;;;;;;;5.43;nan;99646.91;5034115;28;20190;-71
2022/11/12 01:58:32;;;;;;;9.87;8.93;;;;;;;5.42;nan;99647.09;5033990;28;20202;-71
2022/11/12 02:01:00;;;;;;;9.37;8.47;;;;;;;5.40;nan;99644.59;5033900;28;20226;-71
2022/11/12 02:03:27;;;;;;;10.50;8.63;;;;;;;5.40;nan;99641.13;5033974;28;20209;-71
2022/11/12 02:05:59;;;;;;;8.77;7.87;;;;;;;5.40;nan;99643.75;5033651;28;20614;-71
2022/11/12 02:08:28;;;;;;;9.03;8.13;;;;;;;5.33;nan;99638.25;5033930;28;20202;-71
2022/11/12 02:10:54;;;;;;;11.20;8.50;;;;;;;5.27;nan;99636.22;5033841;28;20230;-71
2022/11/12 02:16:07;;;;;;;10.10;8.50;;;;;;;5.32;nan;99633.94;5033863;28;20544;-71
2022/11/12 02:18:33;;;;;;;10.73;8.23;;;;;;;5.33;nan;99630.34;5033494;28;20206;-71
2022/11/12 02:21:08;;;;;;;9.67;8.77;;;;;;;5.24;nan;99630.41;5033297;28;20232;-71
2022/11/12 02:23:36;;;;;;;10.47;9.37;;;;;;;5.14;nan;99629.59;5033449;28;20186;-70
2022/11/12 02:26:02;;;;;;;10.27;9.03;;;;;;;5.08;nan;99619.66;5033678;28;20229;-71
2022/11/12 02:28:32;;;;;;;9.70;8.57;;;;;;;4.97;nan;99620.66;5033600;28;20212;-70
2022/11/12 02:30:58;;;;;;;9.07;8.10;;;;;;;4.95;nan;99624.44;5033428;28;20229;-71
2022/11/12 02:33:25;;;;;;;9.70;8.80;;;;;;;4.96;nan;99620.81;5033511;28;20226;-70
2022/11/12 02:35:51;;;;;;;10.20;8.67;;;;;;;4.91;nan;99620.41;5033233;28;20206;-71
2022/11/12 02:38:17;;;;;;;10.00;9.00;;;;;;;4.91;nan;99615.16;5033526;28;20206;-71
2022/11/12 02:40:44;;;;;;;9.23;8.40;;;;;;;4.98;nan;99616.25;5033466;28;20233;-71
2022/11/12 02:43:10;;;;;;;10.27;7.97;;;;;;;4.94;nan;99620.97;5033445;28;20222;-71
2022/11/12 02:45:37;;;;;;;9.73;8.40;;;;;;;4.89;nan;99610.03;5033452;28;20210;-71
2022/11/12 02:48:03;;;;;;;9.13;8.23;;;;;;;4.90;nan;99618.75;5033118;28;20209;-71
2022/11/12 02:50:29;;;;;;;9.80;8.00;;;;;;;4.85;nan;99619.22;5033239;28;20230;-71
2022/11/12 02:52:56;;;;;;;9.40;8.20;;;;;;;4.88;nan;99618.91;5033239;28;20243;-70
2022/11/12 02:55:22;;;;;;;9.20;8.30;;;;;;;4.88;nan;99626.00;5033402;28;20206;-71
2022/11/12 02:57:48;;;;;;;8.70;7.80;;;;;;;4.85;nan;99621.00;5033283;28;20567;-71
2022/11/12 03:00:15;;;;;;;8.93;8.03;;;;;;;4.84;nan;99616.72;5037016;28;20233;-71
2022/11/12 03:02:42;;;;;;;9.10;8.10;;;;;;;4.77;nan;99621.75;5037297;28;20240;-71
2022/11/12 03:05:10;;;;;;;8.30;7.50;;;;;;;4.76;nan;99625.34;5037240;28;20206;-71
2022/11/12 03:07:37;;;;;;;7.83;6.67;;;;;;;4.80;nan;99626.69;5036896;28;20781;-71
2022/11/12 03:10:05;;;;;;;8.00;7.30;;;;;;;4.74;nan;99634.38;5037114;28;20212;-71
2022/11/12 03:12:32;;;;;;;7.93;7.23;;;;;;;4.56;nan;99631.63;5036936;28;20217;-70
2022/11/12 03:14:59;;;;;;;7.90;7.20;;;;;;;4.52;nan;99625.00;5037095;28;20206;-71
2022/11/12 03:17:25;;;;;;;7.50;6.80;;;;;;;4.49;nan;99630.56;5037048;28;20209;-70
2022/11/12 03:19:51;;;;;;;6.93;6.33;;;;;;;4.52;nan;99632.09;5037078;28;20206;-70
2022/11/12 03:22:17;;;;;;;8.73;6.67;;;;;;;4.60;nan;99627.75;5036780;28;20245;-71
2022/11/12 03:24:44;;;;;;;7.93;7.13;;;;;;;4.59;nan;99630.53;5036913;28;20198;-70
2022/11/12 03:27:10;;;;;;;7.30;6.70;;;;;;;4.54;nan;99628.34;5036818;28;20210;-71
2022/11/12 03:29:37;;;;;;;7.90;7.10;;;;;;;4.53;nan;99625.84;5036811;28;20581;-70
2022/11/12 03:32:03;;;;;;;7.53;6.83;;;;;;;4.56;nan;99622.94;5036284;28;20716;-71
2022/11/12 03:34:29;;;;;;;7.50;6.53;;;;;;;4.54;nan;99617.78;5036285;28;20590;-71
2022/11/12 03:36:56;;;;;;;7.67;6.00;;;;;;;4.57;nan;99625.38;5036649;28;20206;-71
2022/11/12 03:39:22;;;;;;;6.57;5.97;;;;;;;4.56;nan;99622.94;5036599;28;20206;-71
2022/11/12 03:41:48;;;;;;;7.53;6.83;;;;;;;4.37;nan;99623.78;5036486;28;20229;-71
2022/11/12 03:44:15;;;;;;;7.80;6.50;;;;;;;4.41;nan;99616.44;5036537;28;20201;-71
2022/11/12 03:46:41;;;;;;;6.97;6.30;;;;;;;4.40;nan;99612.16;5036525;28;20217;-71
2022/11/12 03:49:07;;;;;;;7.90;6.50;;;;;;;4.25;nan;99624.09;5036719;28;20206;-71
2022/11/12 03:51:34;;;;;;;7.60;6.80;;;;;;;4.15;nan;99620.63;5036282;28;20225;-71
2022/11/12 03:54:00;;;;;;;7.27;6.37;;;;;;;4.15;nan;99624.09;5035921;28;20253;-71
2022/11/12 03:56:26;;;;;;;6.83;6.13;;;;;;;4.17;nan;99631.88;5036084;28;20202;-71
2022/11/12 03:58:53;;;;;;;7.40;6.23;;;;;;;4.24;nan;99638.22;5036040;28;20225;-70
2022/11/12 04:01:19;;;;;;;6.10;5.50;;;;;;;4.28;nan;99636.97;5036200;28;20229;-71
2022/11/12 04:03:45;;;;;;;7.07;6.13;;;;;;;4.28;nan;99634.31;5036471;28;20198;-71
2022/11/12 04:08:56;;;;;;;7.33;6.30;;;;;;;4.23;nan;99631.28;5035969;28;20232;-71
2022/11/12 04:11:22;;;;;;;7.00;6.30;;;;;;;4.13;nan;99630.47;5035098;28;20236;-71
2022/11/12 04:13:48;;;;;;;6.97;6.17;;;;;;;4.12;nan;99629.63;5035878;28;20222;-71
2022/11/12 04:21:54;;;;;;;6.63;5.97;;;;;;;3.98;nan;99631.88;5035500;28;20270;-70
2022/11/12 04:27:05;;;;;;;7.00;5.97;;;;;;;4.09;nan;99637.84;5035499;28;20536;-70
2022/11/12 04:32:16;;;;;;;7.20;5.77;;;;;;;4.11;nan;99621.91;5035635;28;20289;-71
2022/11/12 04:34:43;;;;;;;6.67;5.97;;;;;;;4.10;nan;99626.31;5035600;28;20222;-70
2022/11/12 04:37:09;;;;;;;6.60;5.90;;;;;;;4.07;nan;99623.97;5035477;28;20209;-71
2022/11/12 04:39:36;;;;;;;6.30;5.60;;;;;;;4.10;nan;99622.84;5035212;28;20209;-70
2022/11/12 04:45:01;;;;;;;6.27;5.73;;;;;;;4.19;nan;99604.44;5035095;28;20546;-70
2022/11/12 04:47:32;;;;;;;5.93;5.43;;;;;;;4.19;nan;99603.59;5035396;28;20197;-70
2022/11/12 04:49:59;;;;;;;6.30;5.70;;;;;;;4.21;nan;99605.09;5034883;28;20210;-70
2022/11/12 04:52:27;;;;;;;6.57;5.97;;;;;;;4.15;nan;99613.56;5035272;28;20571;-70
2022/11/12 04:54:53;;;;;;;5.70;5.20;;;;;;;4.33;nan;99613.66;5035131;28;20230;-70
2022/11/12 04:57:20;;;;;;;6.13;5.53;;;;;;;4.28;nan;99610.63;5035171;28;20567;-70
2022/11/12 04:59:47;;;;;;;6.07;5.57;;;;;;;4.38;nan;99619.38;5035152;28;20209;-70
2022/11/12 05:02:15;;;;;;;6.47;5.87;;;;;;;4.36;nan;99626.56;5034740;28;20230;-70
2022/11/12 05:04:41;;;;;;;6.73;5.90;;;;;;;4.44;nan;99629.31;5034697;28;20669;-70
2022/11/12 05:07:08;;;;;;;5.90;5.40;;;;;;;4.46;nan;99625.56;5034737;28;20216;-70
2022/11/12 05:09:34;;;;;;;5.53;5.03;;;;;;;4.41;nan;99626.97;5034798;28;20201;-70
2022/11/12 05:12:00;;;;;;;5.87;5.37;;;;;;;4.46;nan;99630.84;5035053;28;20232;-70
2022/11/12 05:14:27;;;;;;;5.60;5.10;;;;;;;4.35;nan;99625.75;5034992;28;20240;-70
2022/11/12 05:16:53;;;;;;;6.67;6.03;;;;;;;4.30;nan;99627.94;5034766;28;20210;-70
2022/11/12 05:19:20;;;;;;;6.60;5.90;;;;;;;4.27;nan;99630.03;5034661;28;20260;-70
2022/11/12 05:22:05;;;;;;;6.50;5.90;;;;;;;4.41;nan;99629.59;5034331;28;20244;-70
2022/11/12 05:24:36;;;;;;;7.37;5.67;;;;;;;4.50;nan;99626.94;5034347;28;20548;-70
2022/11/12 05:27:05;;;;;;;6.07;5.47;;;;;;;4.49;nan;99627.09;5034630;28;20213;-70
2022/11/12 05:29:32;;;;;;;7.40;6.17;;;;;;;4.51;nan;99625.13;5034250;28;20673;-70
2022/11/12 05:31:58;;;;;;;7.33;5.87;;;;;;;4.39;nan;99621.84;5034333;28;20236;-70
2022/11/12 05:34:24;;;;;;;6.77;5.90;;;;;;;4.40;nan;99630.56;5034318;28;20226;-70
2022/11/12 05:36:51;;;;;;;6.73;5.90;;;;;;;4.47;nan;99624.59;5034291;28;20202;-70
2022/11/12 05:39:17;;;;;;;6.43;5.73;;;;;;;4.43;nan;99628.47;5034279;28;20224;-70
2022/11/12 05:41:44;;;;;;;6.23;5.63;;;;;;;4.45;nan;99630.97;5034260;28;20226;-71
2022/11/12 05:44:10;;;;;;;6.23;5.63;;;;;;;4.54;nan;99624.84;5034267;28;20205;-70
2022/11/12 05:46:37;;;;;;;7.33;6.30;;;;;;;4.54;nan;99627.50;5033954;28;20665;-70
2022/11/12 05:49:03;;;;;;;6.30;5.70;;;;;;;4.43;nan;99623.22;5034094;28;20201;-70
2022/11/12 05:51:29;;;;;;;5.70;5.20;;;;;;;4.47;nan;99631.69;5034038;28;20236;-70
2022/11/12 05:53:56;;;;;;;5.60;5.10;;;;;;;4.47;nan;99636.94;5034031;28;20232;-70
2022/11/12 05:56:22;;;;;;;6.43;5.83;;;;;;;4.44;nan;99637.22;5034048;28;20202;-70
2022/11/12 05:58:49;;;;;;;6.20;5.60;;;;;;;4.42;nan;99637.34;5034028;28;20208;-70
2022/11/12 06:01:15;;;;;;;6.00;5.40;;;;;;;4.39;nan;99636.81;5033910;28;20226;-70
2022/11/12 06:03:41;;;;;;;6.30;5.47;;;;;;;4.40;nan;99633.22;5034259;28;20208;-70
2022/11/12 06:06:08;;;;;;;6.17;5.67;;;;;;;4.27;nan;99643.22;5033629;28;20221;-70
2022/11/12 06:08:34;;;;;;;6.10;5.50;;;;;;;4.15;nan;99652.22;5033698;28;20202;-70
2022/11/12 06:11:01;;;;;;;5.90;5.30;;;;;;;4.24;nan;99648.75;5033755;28;20232;-70
2022/11/12 06:13:27;;;;;;;6.53;5.93;;;;;;;4.22;nan;99654.16;5033961;28;20232;-70
2022/11/12 06:15:54;;;;;;;6.63;5.90;;;;;;;4.12;nan;99650.69;5033799;28;20205;-70
2022/11/12 06:18:21;;;;;;;6.90;5.63;;;;;;;4.08;nan;99657.22;5033453;28;20665;-70
2022/11/12 06:21:18;;;;;;;7.43;6.30;;;;;;;4.07;nan;99657.38;5033617;28;20226;-70
2022/11/12 06:23:35;;;;;;;6.97;6.13;;;;;;;4.00;nan;99656.25;5033391;28;20201;-70
2022/11/12 06:26:02;;;;;;;7.03;6.33;;;;;;;4.04;nan;99660.25;5033418;28;20202;-70
2022/11/12 06:28:28;;;;;;;8.10;6.63;;;;;;;4.04;nan;99662.91;5033589;28;20305;-70
2022/11/12 06:30:55;;;;;;;7.00;6.30;;;;;;;4.16;nan;99661.78;5033565;28;20225;-70
2022/11/12 06:33:22;;;;;;;8.07;6.47;;;;;;;4.09;nan;99656.25;5032981;28;20212;-70
2022/11/12 06:35:56;;;;;;;7.17;6.47;;;;;;;4.22;nan;99661.22;5033477;28;20212;-70
2022/11/12 06:38:23;;;;;;;6.90;6.23;;;;;;;4.18;nan;99658.06;5033371;28;20191;-70
2022/11/12 06:40:49;;;;;;;6.73;6.10;;;;;;;4.24;nan;99656.63;5033815;28;20226;-70
2022/11/12 06:43:16;;;;;;;6.40;5.67;;;;;;;4.14;nan;99658.44;5033414;28;20212;-70
2022/11/12 06:45:42;;;;;;;6.80;6.03;;;;;;;4.04;nan;99669.00;5033477;28;20206;-70
2022/11/12 06:48:08;;;;;;;6.67;6.07;;;;;;;4.08;nan;99669.53;5033061;28;20224;-70
2022/11/12 06:50:35;;;;;;;6.60;5.90;;;;;;;4.04;nan;99665.53;5033350;28;20592;-70
2022/11/12 06:53:01;;;;;;;6.37;5.77;;;;;;;4.14;nan;99653.19;5033396;28;20229;-70
2022/11/12 06:55:28;;;;;;;6.60;5.93;;;;;;;4.21;nan;99649.03;5033287;28;20229;-70
2022/11/12 06:57:54;;;;;;;6.80;6.10;;;;;;;4.30;nan;99649.00;5033819;28;20209;-71
2022/11/12 07:00:21;;;;;;;5.93;5.43;;;;;;;4.35;nan;99649.44;5033199;28;20226;-70
2022/11/12 07:02:47;;;;;;;6.63;5.87;;;;;;;4.41;nan;99650.66;5033190;28;20212;-70
2022/11/12 07:05:13;;;;;;;7.00;5.73;;;;;;;4.36;nan;99647.63;5033056;28;20591;-70
2022/11/12 07:07:40;;;;;;;6.40;5.80;;;;;;;4.45;nan;99646.78;5033134;28;20202;-70
2022/11/12 07:10:07;;;;;;;6.17;5.57;;;;;;;4.48;nan;99654.41;5033123;28;20216;-70
2022/11/12 07:12:33;;;;;;;7.70;5.80;;;;;;;4.47;nan;99643.03;5033158;28;20206;-70
2022/11/12 07:14:59;;;;;;;6.20;5.60;;;;;;;4.53;nan;99650.34;5033071;28;20221;-70
2022/11/12 07:17:26;;;;;;;6.93;5.43;;;;;;;4.37;nan;99654.53;5033131;28;20202;-70
2022/11/12 07:19:52;;;;;;;6.83;5.60;;;;;;;4.51;nan;99648.84;5033094;28;20202;-70
2022/11/12 07:22:19;;;;;;;5.97;5.47;;;;;;;4.63;nan;99651.19;5032690;28;20238;-70
2022/11/12 07:24:45;;;;;;;6.27;5.63;;;;;;;4.66;nan;99655.34;5033074;28;20281;-70
2022/11/12 07:27:11;;;;;;;8.30;5.03;;;;;;;4.73;nan;99649.34;5033060;28;20210;-70
2022/11/12 07:29:38;;;;;;;6.63;5.23;;;;;;;4.81;nan;99656.53;5032944;28;20256;-70
2022/11/12 07:32:04;;;;;;;5.70;5.20;;;;;;;4.73;nan;99654.59;5032855;28;20236;-70
2022/11/12 07:34:31;;;;;;;5.83;5.00;;;;;;;4.72;nan;99655.59;5032855;28;20229;-70
2022/11/12 07:36:57;;;;;;;5.23;4.83;;;;;;;4.74;nan;99648.38;5032926;28;20209;-70
2022/11/12 07:39:23;;;;;;;6.00;5.40;;;;;;;4.84;nan;99641.25;5032967;28;20659;-70
2022/11/12 07:41:50;;;;;;;6.80;5.40;;;;;;;4.84;nan;99637.81;5033078;28;20222;-70
2022/11/12 07:44:16;;;;;;;6.00;5.07;;;;;;;4.97;nan;99641.75;5032883;28;20218;-70
2022/11/12 07:46:43;;;;;;;6.87;5.80;;;;;;;4.95;nan;99637.59;5035599;28;20205;-70
2022/11/12 07:49:09;;;;;;;6.27;5.70;;;;;;;4.86;nan;99641.94;5036464;28;20561;-70
2022/11/12 07:51:36;;;;;;;6.80;5.60;;;;;;;4.87;nan;99634.84;5036209;28;20602;-70
2022/11/12 07:54:03;;;;;;;6.63;5.63;;;;;;;4.95;nan;99629.69;5036282;28;20229;-70
2022/11/12 07:56:29;;;;;;;6.33;5.83;;;;;;;4.94;nan;99638.59;5035992;28;20699;-70
2022/11/12 07:58:56;;;;;;;6.07;5.47;;;;;;;4.80;nan;99639.06;5036190;28;20206;-70
2022/11/12 08:01:45;;;;;;;6.57;5.97;;;;;;;4.78;nan;99636.56;5036277;28;20228;-70
2022/11/12 08:04:12;;;;;;;7.57;6.20;;;;;;;4.79;nan;99638.22;5036207;28;20209;-70
2022/11/12 08:06:39;;;;;;;8.53;6.53;;;;;;;4.81;nan;99645.97;5036090;28;20244;-70
2022/11/12 08:09:09;;;;;;;6.80;6.10;;;;;;;4.76;nan;99642.94;5036119;28;20282;-70
2022/11/12 08:11:35;;;;;;;7.63;6.50;;;;;;;4.83;nan;99641.38;5035662;28;20229;-70
2022/11/12 08:14:02;;;;;;;7.40;6.40;;;;;;;4.81;nan;99646.81;5035843;28;20222;-70
2022/11/12 08:16:28;;;;;;;7.80;5.83;;;;;;;4.96;nan;99642.75;5035866;28;20202;-70
2022/11/12 08:18:55;;;;;;;6.17;5.57;;;;;;;4.87;nan;99655.94;5035770;28;20206;-70
2022/11/12 08:21:21;;;;;;;6.67;6.07;;;;;;;4.95;nan;99650.78;5035365;28;20245;-70
2022/11/12 08:23:48;;;;;;;6.60;6.00;;;;;;;4.97;nan;99654.13;5035860;28;20200;-70
2022/11/12 08:26:20;;;;;;;7.17;6.43;;;;;;;4.98;nan;99653.13;5035112;28;20206;-70
2022/11/12 08:28:47;;;;;;;6.73;5.93;;;;;;;5.06;nan;99654.06;5035593;28;20190;-70
2022/11/12 08:31:16;;;;;;;6.30;5.67;;;;;;;5.17;nan;99648.63;5035448;28;20226;-70
2022/11/12 08:33:43;;;;;;;6.37;5.77;;;;;;;5.27;nan;99648.53;5035148;28;20672;-70
2022/11/12 08:36:12;;;;;;;9.10;6.67;;;;;;;5.30;nan;99651.72;5035399;28;20221;-70
2022/11/12 08:38:40;;;;;;;6.97;6.13;;;;;;;5.48;nan;99651.78;5035239;28;20237;-70
2022/11/12 08:41:09;;;;;;;7.17;6.10;;;;;;;5.64;nan;99650.13;5035322;28;20257;-70
2022/11/12 08:43:36;;;;;;;7.33;6.47;;;;;;;5.72;nan;99644.09;5035177;28;20210;-70
2022/11/12 08:46:04;;;;;;;7.63;6.60;;;;;;;5.83;nan;99644.75;5035318;28;20228;-70
2022/11/12 08:48:32;;;;;;;7.20;6.50;;;;;;;5.87;nan;99650.53;5035821;28;20237;-70
2022/11/12 08:51:02;;;;;;;6.63;6.03;;;;;;;5.93;nan;99652.59;5035139;28;20230;-70
2022/11/12 08:53:28;;;;;;;7.00;6.30;;;;;;;6.02;nan;99649.88;5035251;28;20210;-70
2022/11/12 08:55:55;;;;;;;7.37;6.37;;;;;;;6.11;nan;99651.59;5034583;28;20265;-70
2022/11/12 08:58:23;;;;;;;5.70;5.20;;;;;;;6.29;nan;99648.94;5034880;28;20206;-70
2022/11/12 09:00:50;;;;;;;7.23;6.53;;;;;;;6.41;nan;99645.91;5034608;28;20230;-70
2022/11/12 09:03:19;;;;;;;7.37;6.67;;;;;;;6.50;nan;99649.41;5034898;28;20206;-70
2022/11/12 09:05:45;;;;;;;7.40;6.23;;;;;;;6.64;nan;99649.69;5034660;28;20197;-70
2022/11/12 09:08:15;;;;;;;7.43;6.73;;;;;;;6.71;nan;99641.97;5034482;28;20206;-70
2022/11/12 09:10:42;;;;;;;8.03;6.77;;;;;;;6.70;nan;99643.78;5034601;28;20230;-70
2022/11/12 09:13:09;;;;;;;7.40;6.70;;;;;;;6.77;nan;99646.63;5034401;28;20206;-70
2022/11/12 09:15:35;;;;;;;7.17;6.13;;;;;;;6.84;nan;99640.56;5034482;28;20232;-71
2022/11/12 09:18:04;;;;;;;6.97;6.30;;;;;;;6.82;nan;99639.06;5034586;28;20202;-70
2022/11/12 09:20:31;;;;;;;6.90;6.27;;;;;;;6.79;nan;99629.63;5034434;28;20230;-70
2022/11/12 09:23:03;;;;;;;6.97;6.27;;;;;;;6.88;nan;99636.63;5034298;28;20236;-70
2022/11/12 09:25:29;;;;;;;11.13;6.87;;;;;;;7.00;nan;99626.59;5034209;28;20183;-70
2022/11/12 09:27:56;;;;;;;7.63;6.83;;;;;;;6.99;nan;99628.44;5034534;28;20202;-70
2022/11/12 09:30:23;;;;;;;7.67;6.93;;;;;;;7.15;nan;99630.31;5034340;28;20222;-70
2022/11/12 09:32:49;;;;;;;7.73;6.73;;;;;;;6.96;nan;99631.38;5034361;28;20231;-70
2022/11/12 09:35:16;;;;;;;6.90;6.30;;;;;;;6.99;nan;99622.28;5034421;28;20225;-71
2022/11/12 09:37:42;;;;;;;7.07;6.33;;;;;;;7.14;nan;99624.19;5034285;28;20297;-70
2022/11/12 09:40:18;;;;;;;8.30;6.57;;;;;;;7.22;nan;99631.31;5034229;28;20249;-70
2022/11/12 09:42:49;;;;;;;8.20;7.27;;;;;;;7.25;nan;99621.28;5034208;28;20526;-70
2022/11/12 09:45:24;;;;;;;7.50;6.77;;;;;;;7.37;nan;99627.91;5034552;28;20182;-70
2022/11/12 09:47:57;;;;;;;6.80;6.17;;;;;;;7.31;nan;99612.69;5034474;28;20194;-71
2022/11/12 09:50:26;;;;;;;7.07;5.97;;;;;;;7.37;nan;99616.50;5033774;28;20229;-70
2022/11/12 09:53:19;;;;;;;7.13;6.50;;;;;;;7.29;nan;99617.28;5034409;28;20305;-70
2022/11/12 09:55:49;;;;;;;6.67;6.03;;;;;;;7.45;nan;99616.50;5033719;28;20214;-70
2022/11/12 09:58:18;;;;;;;7.50;6.77;;;;;;;7.64;nan;99624.19;5033999;28;20186;-70
2022/11/12 10:01:03;;;;;;;7.10;6.40;;;;;;;7.50;nan;99624.78;5032468;28;20712;-70
2022/11/12 10:03:34;;;;;;;6.97;6.33;;;;;;;7.51;nan;99623.81;5034023;28;20563;-70
2022/11/12 10:06:20;;;;;;;6.57;5.93;;;;;;;7.57;nan;99620.53;5033479;28;20600;-71
2022/11/12 10:09:13;;;;;;;6.33;5.73;;;;;;;7.52;nan;99622.84;5032711;28;20534;-70
2022/11/12 10:16:41;;;;;;;6.93;6.33;;;;;;;7.67;nan;99623.84;5033806;28;20577;-70
2022/11/12 10:17:55;;;;;;;6.50;5.90;;;;;;;7.75;nan;99614.13;5033097;28;20217;-70
2022/11/12 10:20:29;;;;;;;6.97;6.27;;;;;;;7.99;nan;99622.09;5033059;28;20229;-70
2022/11/12 10:23:12;;;;;;;5.87;5.37;;;;;;;8.06;nan;99611.66;5033237;28;20216;-70
2022/11/12 10:25:39;;;;;;;6.40;5.73;;;;;;;8.22;nan;99614.31;5032295;28;20202;-70
2022/11/12 10:28:49;;;;;;;5.77;5.17;;;;;;;8.34;nan;99613.00;5033358;28;20211;-71
2022/11/12 10:31:20;;;;;;;6.10;5.60;;;;;;;8.44;nan;99605.69;4996301;28;20225;-70
2022/11/12 10:33:47;;;;;;;6.30;5.70;;;;;;;8.43;nan;99602.25;5033390;28;20255;-70
2022/11/12 10:36:18;;;;;;;6.00;5.40;;;;;;;8.78;nan;99601.81;5033157;28;20226;-70
2022/11/12 10:38:48;;;;;;;6.47;5.40;;;;;;;8.95;nan;99599.94;5032226;28;20191;-70
2022/11/12 10:41:19;;;;;;;7.53;5.90;;;;;;;9.05;nan;99601.38;5032943;28;20230;-70
2022/11/12 10:44:07;;;;;;;5.83;5.33;;;;;;;8.89;nan;99597.97;5033126;28;20206;-70
2022/11/12 10:46:36;;;;;;;6.20;5.70;;;;;;;8.77;nan;99602.81;5033357;28;20286;-70
2022/11/12 10:49:22;;;;;;;6.93;6.23;;;;;;;8.72;nan;99599.00;5033207;28;20202;-70
2022/11/12 10:51:57;;;;;;;6.47;5.67;;;;;;;8.72;nan;99599.84;5032571;28;20232;-70
2022/11/12 10:54:29;;;;;;;6.20;5.60;;;;;;;8.70;nan;99593.91;5033123;28;20208;-70
2022/11/12 10:56:56;;;;;;;6.17;5.57;;;;;;;8.80;nan;99599.00;5032787;28;20691;-70
2022/11/12 10:59:24;;;;;;;7.00;5.97;;;;;;;8.96;nan;99604.25;5032967;28;20205;-70
2022/11/12 11:01:56;;;;;;;5.83;5.20;;;;;;;9.02;nan;99600.91;5033039;28;20230;-70
2022/11/12 11:04:33;;;;;;;6.43;5.83;;;;;;;8.90;nan;99595.16;5032807;28;20216;-70
2022/11/12 11:07:05;;;;;;;6.93;6.00;;;;;;;9.04;nan;99591.78;5033240;28;20200;-70
2022/11/12 11:09:32;;;;;;;6.80;6.10;;;;;;;9.13;nan;99589.91;5032732;28;20220;-70
2022/11/12 11:11:59;;;;;;;6.30;5.70;;;;;;;9.13;nan;99587.25;5033093;28;20230;-70
2022/11/12 11:14:30;;;;;;;6.47;5.87;;;;;;;9.37;nan;99587.97;5032539;28;20213;-70
2022/11/12 11:17:00;;;;;;;6.30;5.70;;;;;;;9.47;nan;99585.09;5032445;28;20661;-70
2022/11/12 11:19:33;;;;;;;5.80;5.30;;;;;;;9.32;nan;99581.56;5032491;28;20212;-70
2022/11/12 11:22:10;;;;;;;5.97;5.37;;;;;;;9.43;nan;99578.50;5036128;28;20573;-70
2022/11/12 11:24:41;;;;;;;5.97;5.37;;;;;;;9.44;nan;99577.47;5035401;28;20567;-70
2022/11/12 11:27:13;;;;;;;6.03;5.53;;;;;;;9.51;nan;99571.28;5036380;28;20191;-70
2022/11/12 11:30:05;;;;;;;6.30;5.70;;;;;;;9.69;nan;99573.69;5036416;28;20216;-70
2022/11/12 11:32:43;;;;;;;6.37;5.77;;;;;;;9.76;nan;99577.28;5036471;28;20190;-70
2022/11/12 11:35:20;;;;;;;5.50;5.00;;;;;;;10.00;nan;99569.94;5036307;28;20217;-71
2022/11/12 11:38:03;;;;;;;6.00;5.23;;;;;;;9.84;nan;99570.09;5036338;28;20269;-71
2022/11/12 11:40:36;;;;;;;5.73;5.30;;;;;;;9.94;nan;99569.84;5035433;28;20591;-70
2022/11/12 11:43:30;;;;;;;6.23;5.73;;;;;;;9.76;nan;99571.97;5036530;28;20196;-70
2022/11/12 11:46:14;;;;;;;5.67;5.17;;;;;;;9.68;nan;99567.53;5036079;28;20589;-71
2022/11/12 11:49:00;;;;;;;5.50;5.00;;;;;;;10.01;nan;99562.81;5036223;28;20205;-71
2022/11/12 11:52:06;;;;;;;4.83;4.13;;;;;;;10.17;nan;99565.34;5035350;28;20244;-70
2022/11/12 11:55:10;;;;;;;5.80;5.13;;;;;;;10.04;nan;99562.44;5035976;28;20194;-71
2022/11/12 11:57:50;;;;;;;6.03;5.17;;;;;;;10.02;nan;99556.50;5035949;28;20206;-70
2022/11/12 12:00:24;;;;;;;5.70;5.10;;;;;;;10.00;nan;99554.00;5035771;28;20254;-71
2022/11/12 12:03:31;;;;;;;5.33;4.83;;;;;;;10.24;nan;99551.19;5035776;28;20659;-70
2022/11/12 12:06:17;;;;;;;5.40;4.80;;;;;;;10.17;nan;99547.59;5035633;28;20190;-71
2022/11/12 12:09:08;;;;;;;6.10;4.70;;;;;;;10.04;nan;99544.69;5035582;28;20633;-71
2022/11/12 12:12:15;;;;;;;5.20;4.77;;;;;;;10.17;nan;99536.94;5035782;28;20222;-70
2022/11/12 12:15:10;;;;;;;5.17;4.67;;;;;;;10.19;nan;99539.44;5035358;28;20190;-71
2022/11/12 12:18:04;;;;;;;5.60;5.10;;;;;;;10.37;nan;99529.28;5025289;28;20258;-70
2022/11/12 12:20:58;;;;;;;6.03;4.20;;;;;;;10.47;nan;99530.69;5034048;28;20236;-70
2022/11/12 12:23:42;;;;;;;5.57;5.03;;;;;;;10.73;nan;99535.53;5035076;28;20292;-71
2022/11/12 12:26:21;;;;;;;5.33;4.90;;;;;;;10.78;nan;99525.97;5035577;28;20210;-70
2022/11/12 12:29:05;;;;;;;5.20;4.80;;;;;;;10.61;nan;99521.88;5035446;28;20190;-71
2022/11/12 12:31:37;;;;;;;5.67;4.90;;;;;;;10.65;nan;99531.16;5033873;28;20225;-71